sensor_id;sensor_type;location;lat;lon;timestamp;P1;durP1;ratioP1;P2;durP2;ratioP2
66601;SDS011;53459;51.828;7.872;2022-08-21T00:00:28;14.52;;;6.97;;
66601;SDS011;53459;51.828;7.872;2022-08-21T00:02:58;14.00;;;6.90;;
66601;SDS011;53459;51.828;7.872;2022-08-21T00:05:26;16.50;;;7.18;;
66601;SDS011;53459;51.828;7.872;2022-08-21T00:07:53;13.63;;;7.40;;
66601;SDS011;53459;51.828;7.872;2022-08-21T00:10:19;13.25;;;7.05;;
66601;SDS011;53459;51.828;7.872;2022-08-21T00:12:45;12.82;;;6.78;;
66601;SDS011;53459;51.828;7.872;2022-08-21T00:15:16;14.48;;;6.70;;
66601;SDS011;53459;51.828;7.872;2022-08-21T00:19:12;13.13;;;6.30;;
66601;SDS011;53459;51.828;7.872;2022-08-21T00:21:38;13.30;;;6.90;;
66601;SDS011;53459;51.828;7.872;2022-08-21T00:24:06;14.20;;;7.20;;
66601;SDS011;53459;51.828;7.872;2022-08-21T00:33:47;17.98;;;8.25;;
66601;SDS011;53459;51.828;7.872;2022-08-21T00:36:13;17.75;;;8.02;;
66601;SDS011;53459;51.828;7.872;2022-08-21T00:38:39;14.73;;;7.77;;
66601;SDS011;53459;51.828;7.872;2022-08-21T00:41:58;12.38;;;7.05;;
66601;SDS011;53459;51.828;7.872;2022-08-21T00:49:13;15.38;;;7.78;;
66601;SDS011;53459;51.828;7.872;2022-08-21T01:00:34;14.93;;;7.97;;
66601;SDS011;53459;51.828;7.872;2022-08-21T01:03:06;16.30;;;7.72;;
66601;SDS011;53459;51.828;7.872;2022-08-21T01:05:34;13.43;;;7.30;;
66601;SDS011;53459;51.828;7.872;2022-08-21T01:08:01;14.95;;;7.57;;
66601;SDS011;53459;51.828;7.872;2022-08-21T01:24:02;12.30;;;6.43;;
66601;SDS011;53459;51.828;7.872;2022-08-21T01:26:32;13.77;;;6.30;;
66601;SDS011;53459;51.828;7.872;2022-08-21T01:35:38;14.55;;;6.63;;
66601;SDS011;53459;51.828;7.872;2022-08-21T01:38:04;12.25;;;6.53;;
66601;SDS011;53459;51.828;7.872;2022-08-21T01:40:30;13.67;;;6.07;;
66601;SDS011;53459;51.828;7.872;2022-08-21T01:43:02;14.50;;;6.70;;
66601;SDS011;53459;51.828;7.872;2022-08-21T01:45:28;12.98;;;6.75;;
66601;SDS011;53459;51.828;7.872;2022-08-21T01:58:18;14.30;;;7.38;;
66601;SDS011;53459;51.828;7.872;2022-08-21T02:00:44;15.75;;;7.32;;
66601;SDS011;53459;51.828;7.872;2022-08-21T02:03:10;14.80;;;7.45;;
66601;SDS011;53459;51.828;7.872;2022-08-21T02:05:36;14.47;;;7.43;;
66601;SDS011;53459;51.828;7.872;2022-08-21T02:08:42;12.43;;;7.45;;
66601;SDS011;53459;51.828;7.872;2022-08-21T02:11:27;15.30;;;7.00;;
66601;SDS011;53459;51.828;7.872;2022-08-21T02:16:02;13.60;;;7.00;;
66601;SDS011;53459;51.828;7.872;2022-08-21T02:19:21;11.55;;;6.75;;
66601;SDS011;53459;51.828;7.872;2022-08-21T02:21:54;12.25;;;6.75;;
66601;SDS011;53459;51.828;7.872;2022-08-21T02:24:20;12.23;;;6.32;;
66601;SDS011;53459;51.828;7.872;2022-08-21T02:27:40;13.10;;;6.72;;
66601;SDS011;53459;51.828;7.872;2022-08-21T02:30:25;12.98;;;6.78;;
66601;SDS011;53459;51.828;7.872;2022-08-21T02:32:59;13.85;;;7.00;;
66601;SDS011;53459;51.828;7.872;2022-08-21T02:35:25;13.30;;;6.70;;
66601;SDS011;53459;51.828;7.872;2022-08-21T02:38:08;14.52;;;6.97;;
66601;SDS011;53459;51.828;7.872;2022-08-21T02:40:40;14.83;;;7.20;;
66601;SDS011;53459;51.828;7.872;2022-08-21T02:43:10;16.45;;;7.72;;
66601;SDS011;53459;51.828;7.872;2022-08-21T02:46:33;14.48;;;7.35;;
66601;SDS011;53459;51.828;7.872;2022-08-21T02:49:29;16.90;;;7.50;;
66601;SDS011;53459;51.828;7.872;2022-08-21T02:51:57;15.68;;;8.18;;
66601;SDS011;53459;51.828;7.872;2022-08-21T02:59:56;13.15;;;8.30;;
66601;SDS011;53459;51.828;7.872;2022-08-21T03:07:39;16.55;;;9.30;;
66601;SDS011;53459;51.828;7.872;2022-08-21T03:15:19;15.57;;;8.63;;
66601;SDS011;53459;51.828;7.872;2022-08-21T03:18:33;17.35;;;8.85;;
66601;SDS011;53459;51.828;7.872;2022-08-21T03:21:04;15.50;;;7.97;;
66601;SDS011;53459;51.828;7.872;2022-08-21T03:27:22;16.45;;;8.52;;
66601;SDS011;53459;51.828;7.872;2022-08-21T03:29:52;17.80;;;8.82;;
66601;SDS011;53459;51.828;7.872;2022-08-21T03:32:18;14.70;;;8.40;;
66601;SDS011;53459;51.828;7.872;2022-08-21T03:47:08;18.98;;;10.52;;
66601;SDS011;53459;51.828;7.872;2022-08-21T03:49:44;19.17;;;9.40;;
66601;SDS011;53459;51.828;7.872;2022-08-21T03:52:10;18.95;;;9.88;;
66601;SDS011;53459;51.828;7.872;2022-08-21T03:54:36;15.77;;;9.80;;
66601;SDS011;53459;51.828;7.872;2022-08-21T03:57:02;19.77;;;10.10;;
66601;SDS011;53459;51.828;7.872;2022-08-21T03:59:28;18.73;;;9.77;;
66601;SDS011;53459;51.828;7.872;2022-08-21T04:02:47;19.55;;;10.32;;
66601;SDS011;53459;51.828;7.872;2022-08-21T04:06:06;18.67;;;10.80;;
66601;SDS011;53459;51.828;7.872;2022-08-21T04:08:32;16.95;;;10.18;;
66601;SDS011;53459;51.828;7.872;2022-08-21T04:13:02;16.67;;;10.25;;
66601;SDS011;53459;51.828;7.872;2022-08-21T04:15:28;17.83;;;10.20;;
66601;SDS011;53459;51.828;7.872;2022-08-21T04:18:13;17.50;;;10.50;;
66601;SDS011;53459;51.828;7.872;2022-08-21T04:20:39;20.80;;;10.50;;
66601;SDS011;53459;51.828;7.872;2022-08-21T04:23:07;18.95;;;9.77;;
66601;SDS011;53459;51.828;7.872;2022-08-21T04:26:26;19.80;;;10.63;;
66601;SDS011;53459;51.828;7.872;2022-08-21T04:29:44;18.02;;;10.40;;
66601;SDS011;53459;51.828;7.872;2022-08-21T04:32:10;20.15;;;10.93;;
66601;SDS011;53459;51.828;7.872;2022-08-21T04:35:29;19.10;;;11.38;;
66601;SDS011;53459;51.828;7.872;2022-08-21T04:38:48;18.55;;;10.85;;
66601;SDS011;53459;51.828;7.872;2022-08-21T04:41:14;23.17;;;11.13;;
66601;SDS011;53459;51.828;7.872;2022-08-21T04:44:33;19.00;;;10.65;;
66601;SDS011;53459;51.828;7.872;2022-08-21T04:47:01;18.80;;;10.93;;
66601;SDS011;53459;51.828;7.872;2022-08-21T04:49:26;17.10;;;10.95;;
66601;SDS011;53459;51.828;7.872;2022-08-21T04:51:52;18.43;;;11.00;;
66601;SDS011;53459;51.828;7.872;2022-08-21T04:54:19;18.00;;;10.57;;
66601;SDS011;53459;51.828;7.872;2022-08-21T04:56:47;16.70;;;10.38;;
66601;SDS011;53459;51.828;7.872;2022-08-21T04:59:24;17.50;;;10.68;;
66601;SDS011;53459;51.828;7.872;2022-08-21T05:02:45;18.73;;;11.18;;
66601;SDS011;53459;51.828;7.872;2022-08-21T05:15:16;18.52;;;11.63;;
66601;SDS011;53459;51.828;7.872;2022-08-21T05:17:42;19.67;;;12.02;;
66601;SDS011;53459;51.828;7.872;2022-08-21T05:20:09;18.30;;;11.98;;
66601;SDS011;53459;51.828;7.872;2022-08-21T05:23:27;19.73;;;12.20;;
66601;SDS011;53459;51.828;7.872;2022-08-21T05:29:22;19.83;;;11.57;;
66601;SDS011;53459;51.828;7.872;2022-08-21T05:31:48;20.00;;;11.55;;
66601;SDS011;53459;51.828;7.872;2022-08-21T05:35:09;18.80;;;11.52;;
66601;SDS011;53459;51.828;7.872;2022-08-21T05:51:45;24.00;;;14.00;;
66601;SDS011;53459;51.828;7.872;2022-08-21T05:54:11;23.53;;;13.23;;
66601;SDS011;53459;51.828;7.872;2022-08-21T06:00:08;22.00;;;13.00;;
66601;SDS011;53459;51.828;7.872;2022-08-21T06:07:17;20.08;;;12.07;;
66601;SDS011;53459;51.828;7.872;2022-08-21T06:10:54;21.97;;;12.23;;
66601;SDS011;53459;51.828;7.872;2022-08-21T06:14:19;21.48;;;13.10;;
66601;SDS011;53459;51.828;7.872;2022-08-21T06:17:37;20.65;;;12.00;;
66601;SDS011;53459;51.828;7.872;2022-08-21T06:20:56;21.50;;;13.15;;
66601;SDS011;53459;51.828;7.872;2022-08-21T06:24:14;24.27;;;13.03;;
66601;SDS011;53459;51.828;7.872;2022-08-21T06:27:36;21.73;;;12.85;;
66601;SDS011;53459;51.828;7.872;2022-08-21T06:36:44;25.30;;;14.43;;
66601;SDS011;53459;51.828;7.872;2022-08-21T06:39:11;24.83;;;14.13;;
66601;SDS011;53459;51.828;7.872;2022-08-21T06:41:58;24.05;;;14.23;;
66601;SDS011;53459;51.828;7.872;2022-08-21T06:44:25;21.90;;;13.68;;
66601;SDS011;53459;51.828;7.872;2022-08-21T06:47:15;22.65;;;13.65;;
66601;SDS011;53459;51.828;7.872;2022-08-21T06:49:41;23.52;;;13.20;;
66601;SDS011;53459;51.828;7.872;2022-08-21T06:52:10;21.13;;;13.03;;
66601;SDS011;53459;51.828;7.872;2022-08-21T06:58:42;20.40;;;12.55;;
66601;SDS011;53459;51.828;7.872;2022-08-21T07:01:35;19.70;;;12.57;;
66601;SDS011;53459;51.828;7.872;2022-08-21T07:04:01;22.23;;;11.70;;
66601;SDS011;53459;51.828;7.872;2022-08-21T07:06:27;22.57;;;12.40;;
66601;SDS011;53459;51.828;7.872;2022-08-21T07:11:19;19.65;;;11.45;;
66601;SDS011;53459;51.828;7.872;2022-08-21T07:13:46;18.08;;;10.45;;
66601;SDS011;53459;51.828;7.872;2022-08-21T07:16:13;19.57;;;10.60;;
66601;SDS011;53459;51.828;7.872;2022-08-21T07:19:31;20.98;;;10.25;;
66601;SDS011;53459;51.828;7.872;2022-08-21T07:21:58;19.55;;;10.57;;
66601;SDS011;53459;51.828;7.872;2022-08-21T07:24:26;17.45;;;10.32;;
66601;SDS011;53459;51.828;7.872;2022-08-21T07:26:52;22.50;;;11.23;;
66601;SDS011;53459;51.828;7.872;2022-08-21T07:29:18;20.50;;;10.82;;
66601;SDS011;53459;51.828;7.872;2022-08-21T07:31:44;18.67;;;10.77;;
66601;SDS011;53459;51.828;7.872;2022-08-21T07:34:10;22.27;;;11.23;;
66601;SDS011;53459;51.828;7.872;2022-08-21T07:36:35;18.60;;;11.10;;
66601;SDS011;53459;51.828;7.872;2022-08-21T07:39:01;21.35;;;10.43;;
66601;SDS011;53459;51.828;7.872;2022-08-21T07:41:27;17.67;;;9.63;;
66601;SDS011;53459;51.828;7.872;2022-08-21T07:43:57;19.42;;;10.90;;
66601;SDS011;53459;51.828;7.872;2022-08-21T07:46:24;18.60;;;9.95;;
66601;SDS011;53459;51.828;7.872;2022-08-21T07:48:50;16.45;;;9.82;;
66601;SDS011;53459;51.828;7.872;2022-08-21T07:52:08;17.60;;;8.80;;
66601;SDS011;53459;51.828;7.872;2022-08-21T07:55:27;16.88;;;6.80;;
66601;SDS011;53459;51.828;7.872;2022-08-21T08:13:08;13.18;;;6.10;;
66601;SDS011;53459;51.828;7.872;2022-08-21T08:15:35;14.20;;;6.22;;
66601;SDS011;53459;51.828;7.872;2022-08-21T08:18:01;12.97;;;5.97;;
66601;SDS011;53459;51.828;7.872;2022-08-21T08:20:27;12.20;;;6.00;;
66601;SDS011;53459;51.828;7.872;2022-08-21T08:22:54;12.23;;;6.20;;
66601;SDS011;53459;51.828;7.872;2022-08-21T08:25:21;19.20;;;7.53;;
66601;SDS011;53459;51.828;7.872;2022-08-21T08:27:48;13.77;;;6.17;;
66601;SDS011;53459;51.828;7.872;2022-08-21T08:30:14;15.05;;;7.05;;
66601;SDS011;53459;51.828;7.872;2022-08-21T08:32:41;13.67;;;6.53;;
66601;SDS011;53459;51.828;7.872;2022-08-21T08:35:07;12.43;;;6.15;;
66601;SDS011;53459;51.828;7.872;2022-08-21T08:37:34;15.38;;;6.25;;
66601;SDS011;53459;51.828;7.872;2022-08-21T08:40:03;13.13;;;6.63;;
66601;SDS011;53459;51.828;7.872;2022-08-21T08:42:36;14.05;;;6.88;;
66601;SDS011;53459;51.828;7.872;2022-08-21T08:45:10;14.55;;;6.13;;
66601;SDS011;53459;51.828;7.872;2022-08-21T08:47:42;16.13;;;6.95;;
66601;SDS011;53459;51.828;7.872;2022-08-21T08:52:51;15.65;;;6.50;;
66601;SDS011;53459;51.828;7.872;2022-08-21T08:55:32;13.98;;;6.75;;
66601;SDS011;53459;51.828;7.872;2022-08-21T08:59:53;15.77;;;7.32;;
66601;SDS011;53459;51.828;7.872;2022-08-21T09:02:21;15.57;;;7.20;;
66601;SDS011;53459;51.828;7.872;2022-08-21T09:04:53;16.37;;;7.00;;
66601;SDS011;53459;51.828;7.872;2022-08-21T09:17:40;16.45;;;7.53;;
66601;SDS011;53459;51.828;7.872;2022-08-21T09:27:23;15.95;;;6.07;;
66601;SDS011;53459;51.828;7.872;2022-08-21T09:29:25;10.75;;;4.78;;
66601;SDS011;53459;51.828;7.872;2022-08-21T09:31:55;12.47;;;5.00;;
66601;SDS011;53459;51.828;7.872;2022-08-21T09:35:07;12.43;;;5.20;;
66601;SDS011;53459;51.828;7.872;2022-08-21T09:38:54;12.73;;;4.13;;
66601;SDS011;53459;51.828;7.872;2022-08-21T09:41:29;12.27;;;4.40;;
66601;SDS011;53459;51.828;7.872;2022-08-21T09:43:57;11.43;;;4.68;;
66601;SDS011;53459;51.828;7.872;2022-08-21T09:46:24;11.80;;;4.70;;
66601;SDS011;53459;51.828;7.872;2022-08-21T09:48:52;12.03;;;3.47;;
66601;SDS011;53459;51.828;7.872;2022-08-21T09:51:23;14.20;;;4.35;;
66601;SDS011;53459;51.828;7.872;2022-08-21T09:56:29;11.68;;;3.80;;
66601;SDS011;53459;51.828;7.872;2022-08-21T09:59:18;11.77;;;4.13;;
66601;SDS011;53459;51.828;7.872;2022-08-21T10:02:03;12.70;;;3.80;;
66601;SDS011;53459;51.828;7.872;2022-08-21T10:04:49;12.30;;;4.60;;
66601;SDS011;53459;51.828;7.872;2022-08-21T10:07:19;10.98;;;4.38;;
66601;SDS011;53459;51.828;7.872;2022-08-21T10:09:57;11.68;;;5.00;;
66601;SDS011;53459;51.828;7.872;2022-08-21T10:19:11;10.70;;;4.38;;
66601;SDS011;53459;51.828;7.872;2022-08-21T10:29:59;9.17;;;3.60;;
66601;SDS011;53459;51.828;7.872;2022-08-21T10:32:46;8.32;;;3.30;;
66601;SDS011;53459;51.828;7.872;2022-08-21T10:41:38;9.27;;;2.88;;
66601;SDS011;53459;51.828;7.872;2022-08-21T10:52:10;8.73;;;2.70;;
66601;SDS011;53459;51.828;7.872;2022-08-21T10:54:57;7.85;;;1.95;;
66601;SDS011;53459;51.828;7.872;2022-08-21T11:00:22;7.97;;;2.33;;
66601;SDS011;53459;51.828;7.872;2022-08-21T11:05:42;6.95;;;2.08;;
66601;SDS011;53459;51.828;7.872;2022-08-21T11:08:58;7.00;;;1.80;;
66601;SDS011;53459;51.828;7.872;2022-08-21T11:13:53;7.30;;;1.88;;
66601;SDS011;53459;51.828;7.872;2022-08-21T11:27:08;6.97;;;2.00;;
66601;SDS011;53459;51.828;7.872;2022-08-21T11:29:44;6.53;;;1.70;;
66601;SDS011;53459;51.828;7.872;2022-08-21T11:40:34;6.80;;;1.90;;
66601;SDS011;53459;51.828;7.872;2022-08-21T11:44:03;7.07;;;1.70;;
66601;SDS011;53459;51.828;7.872;2022-08-21T11:46:28;6.93;;;1.73;;
66601;SDS011;53459;51.828;7.872;2022-08-21T11:56:15;6.23;;;1.63;;
66601;SDS011;53459;51.828;7.872;2022-08-21T11:58:49;6.82;;;2.10;;
66601;SDS011;53459;51.828;7.872;2022-08-21T12:01:22;7.50;;;1.90;;
66601;SDS011;53459;51.828;7.872;2022-08-21T12:04:00;7.18;;;2.00;;
66601;SDS011;53459;51.828;7.872;2022-08-21T12:06:34;6.38;;;1.88;;
66601;SDS011;53459;51.828;7.872;2022-08-21T12:09:09;6.80;;;1.80;;
66601;SDS011;53459;51.828;7.872;2022-08-21T12:16:37;7.85;;;2.17;;
66601;SDS011;53459;51.828;7.872;2022-08-21T12:19:09;6.32;;;1.80;;
66601;SDS011;53459;51.828;7.872;2022-08-21T12:27:44;6.30;;;1.65;;
66601;SDS011;53459;51.828;7.872;2022-08-21T12:30:32;6.47;;;1.80;;
66601;SDS011;53459;51.828;7.872;2022-08-21T12:33:02;5.82;;;1.77;;
66601;SDS011;53459;51.828;7.872;2022-08-21T12:36:24;5.75;;;1.80;;
66601;SDS011;53459;51.828;7.872;2022-08-21T12:39:47;6.00;;;1.80;;
66601;SDS011;53459;51.828;7.872;2022-08-21T12:43:16;6.37;;;1.47;;
66601;SDS011;53459;51.828;7.872;2022-08-21T12:46:42;4.93;;;1.40;;
66601;SDS011;53459;51.828;7.872;2022-08-21T12:50:35;5.85;;;1.48;;
66601;SDS011;53459;51.828;7.872;2022-08-21T12:53:57;5.70;;;1.63;;
66601;SDS011;53459;51.828;7.872;2022-08-21T12:57:20;6.03;;;1.63;;
66601;SDS011;53459;51.828;7.872;2022-08-21T13:02:33;5.22;;;1.42;;
66601;SDS011;53459;51.828;7.872;2022-08-21T13:05:53;5.67;;;1.73;;
66601;SDS011;53459;51.828;7.872;2022-08-21T13:09:15;4.93;;;1.65;;
66601;SDS011;53459;51.828;7.872;2022-08-21T13:12:46;5.53;;;1.38;;
66601;SDS011;53459;51.828;7.872;2022-08-21T13:16:06;5.05;;;1.50;;
66601;SDS011;53459;51.828;7.872;2022-08-21T13:19:25;5.97;;;1.23;;
66601;SDS011;53459;51.828;7.872;2022-08-21T13:22:45;6.47;;;1.60;;
66601;SDS011;53459;51.828;7.872;2022-08-21T13:26:14;5.17;;;1.40;;
66601;SDS011;53459;51.828;7.872;2022-08-21T13:28:42;6.80;;;1.60;;
66601;SDS011;53459;51.828;7.872;2022-08-21T13:33:33;4.45;;;1.27;;
66601;SDS011;53459;51.828;7.872;2022-08-21T13:38:26;4.75;;;1.30;;
66601;SDS011;53459;51.828;7.872;2022-08-21T13:40:56;6.60;;;1.63;;
66601;SDS011;53459;51.828;7.872;2022-08-21T13:44:35;4.60;;;1.35;;
66601;SDS011;53459;51.828;7.872;2022-08-21T13:46:46;4.75;;;1.38;;
66601;SDS011;53459;51.828;7.872;2022-08-21T13:49:17;5.67;;;1.43;;
66601;SDS011;53459;51.828;7.872;2022-08-21T13:51:45;6.38;;;1.70;;
66601;SDS011;53459;51.828;7.872;2022-08-21T13:55:51;6.15;;;1.70;;
66601;SDS011;53459;51.828;7.872;2022-08-21T13:58:23;5.10;;;1.42;;
66601;SDS011;53459;51.828;7.872;2022-08-21T14:02:54;4.57;;;1.40;;
66601;SDS011;53459;51.828;7.872;2022-08-21T14:06:24;4.05;;;1.40;;
66601;SDS011;53459;51.828;7.872;2022-08-21T14:10:48;4.90;;;1.40;;
66601;SDS011;53459;51.828;7.872;2022-08-21T14:13:37;5.55;;;1.60;;
66601;SDS011;53459;51.828;7.872;2022-08-21T14:16:03;5.25;;;1.65;;
66601;SDS011;53459;51.828;7.872;2022-08-21T14:18:46;5.55;;;1.50;;
66601;SDS011;53459;51.828;7.872;2022-08-21T14:21:22;4.90;;;1.40;;
66601;SDS011;53459;51.828;7.872;2022-08-21T14:26:53;5.13;;;1.60;;
66601;SDS011;53459;51.828;7.872;2022-08-21T14:29:21;4.27;;;1.40;;
66601;SDS011;53459;51.828;7.872;2022-08-21T14:32:00;5.03;;;1.50;;
66601;SDS011;53459;51.828;7.872;2022-08-21T14:34:35;5.35;;;1.60;;
66601;SDS011;53459;51.828;7.872;2022-08-21T14:37:00;5.40;;;1.40;;
66601;SDS011;53459;51.828;7.872;2022-08-21T14:39:26;6.43;;;1.60;;
66601;SDS011;53459;51.828;7.872;2022-08-21T14:41:51;5.97;;;1.50;;
66601;SDS011;53459;51.828;7.872;2022-08-21T14:45:16;5.03;;;1.23;;
66601;SDS011;53459;51.828;7.872;2022-08-21T14:47:43;5.10;;;1.48;;
66601;SDS011;53459;51.828;7.872;2022-08-21T14:50:10;6.27;;;1.60;;
66601;SDS011;53459;51.828;7.872;2022-08-21T14:52:37;6.00;;;1.63;;
66601;SDS011;53459;51.828;7.872;2022-08-21T14:55:04;5.00;;;1.42;;
66601;SDS011;53459;51.828;7.872;2022-08-21T14:57:32;5.47;;;1.30;;
66601;SDS011;53459;51.828;7.872;2022-08-21T14:59:58;6.13;;;1.45;;
66601;SDS011;53459;51.828;7.872;2022-08-21T15:02:25;6.15;;;1.60;;
66601;SDS011;53459;51.828;7.872;2022-08-21T15:06:21;5.55;;;1.70;;
66601;SDS011;53459;51.828;7.872;2022-08-21T15:08:47;5.88;;;1.50;;
66601;SDS011;53459;51.828;7.872;2022-08-21T15:12:05;5.20;;;1.30;;
66601;SDS011;53459;51.828;7.872;2022-08-21T15:15:24;6.07;;;1.30;;
66601;SDS011;53459;51.828;7.872;2022-08-21T15:18:42;6.30;;;1.50;;
66601;SDS011;53459;51.828;7.872;2022-08-21T15:22:00;7.07;;;1.60;;
66601;SDS011;53459;51.828;7.872;2022-08-21T15:25:18;6.53;;;1.50;;
66601;SDS011;53459;51.828;7.872;2022-08-21T15:28:37;4.82;;;1.50;;
66601;SDS011;53459;51.828;7.872;2022-08-21T15:31:56;4.72;;;1.38;;
66601;SDS011;53459;51.828;7.872;2022-08-21T15:35:55;6.40;;;1.40;;
66601;SDS011;53459;51.828;7.872;2022-08-21T15:39:13;5.30;;;1.40;;
66601;SDS011;53459;51.828;7.872;2022-08-21T15:42:32;5.27;;;1.40;;
66601;SDS011;53459;51.828;7.872;2022-08-21T15:44:58;5.07;;;1.50;;
66601;SDS011;53459;51.828;7.872;2022-08-21T15:47:28;5.50;;;1.50;;
66601;SDS011;53459;51.828;7.872;2022-08-21T15:50:39;5.18;;;1.45;;
66601;SDS011;53459;51.828;7.872;2022-08-21T15:53:05;4.50;;;1.30;;
66601;SDS011;53459;51.828;7.872;2022-08-21T15:55:33;4.93;;;1.40;;
66601;SDS011;53459;51.828;7.872;2022-08-21T15:57:59;5.30;;;1.25;;
66601;SDS011;53459;51.828;7.872;2022-08-21T16:00:26;5.30;;;1.48;;
66601;SDS011;53459;51.828;7.872;2022-08-21T16:02:59;5.90;;;1.40;;
66601;SDS011;53459;51.828;7.872;2022-08-21T16:06:49;4.63;;;1.30;;
66601;SDS011;53459;51.828;7.872;2022-08-21T16:09:15;5.88;;;1.30;;
66601;SDS011;53459;51.828;7.872;2022-08-21T16:11:41;6.47;;;1.50;;
66601;SDS011;53459;51.828;7.872;2022-08-21T16:14:07;4.70;;;1.20;;
66601;SDS011;53459;51.828;7.872;2022-08-21T16:16:35;7.30;;;1.52;;
66601;SDS011;53459;51.828;7.872;2022-08-21T16:19:02;6.18;;;1.55;;
66601;SDS011;53459;51.828;7.872;2022-08-21T16:21:28;6.60;;;1.58;;
66601;SDS011;53459;51.828;7.872;2022-08-21T16:23:54;5.57;;;1.40;;
66601;SDS011;53459;51.828;7.872;2022-08-21T16:26:20;5.22;;;1.38;;
66601;SDS011;53459;51.828;7.872;2022-08-21T16:28:48;4.25;;;1.40;;
66601;SDS011;53459;51.828;7.872;2022-08-21T16:31:17;4.97;;;1.25;;
66601;SDS011;53459;51.828;7.872;2022-08-21T16:33:48;5.72;;;1.40;;
66601;SDS011;53459;51.828;7.872;2022-08-21T16:36:15;4.55;;;1.30;;
66601;SDS011;53459;51.828;7.872;2022-08-21T16:38:41;4.82;;;1.17;;
66601;SDS011;53459;51.828;7.872;2022-08-21T16:41:08;5.13;;;1.40;;
66601;SDS011;53459;51.828;7.872;2022-08-21T16:43:44;6.03;;;1.42;;
66601;SDS011;53459;51.828;7.872;2022-08-21T16:46:11;5.90;;;1.20;;
66601;SDS011;53459;51.828;7.872;2022-08-21T16:48:39;5.03;;;1.30;;
66601;SDS011;53459;51.828;7.872;2022-08-21T16:51:06;7.23;;;1.40;;
66601;SDS011;53459;51.828;7.872;2022-08-21T16:53:31;5.07;;;1.30;;
66601;SDS011;53459;51.828;7.872;2022-08-21T16:55:57;5.00;;;1.35;;
66601;SDS011;53459;51.828;7.872;2022-08-21T16:58:28;5.10;;;1.30;;
66601;SDS011;53459;51.828;7.872;2022-08-21T17:01:26;5.20;;;1.30;;
66601;SDS011;53459;51.828;7.872;2022-08-21T17:03:54;6.30;;;1.23;;
66601;SDS011;53459;51.828;7.872;2022-08-21T17:06:20;4.57;;;1.20;;
66601;SDS011;53459;51.828;7.872;2022-08-21T17:11:04;5.10;;;1.40;;
66601;SDS011;53459;51.828;7.872;2022-08-21T17:13:33;5.30;;;1.33;;
66601;SDS011;53459;51.828;7.872;2022-08-21T17:15:59;5.05;;;1.30;;
66601;SDS011;53459;51.828;7.872;2022-08-21T17:18:25;6.05;;;1.50;;
66601;SDS011;53459;51.828;7.872;2022-08-21T17:20:50;5.40;;;1.47;;
66601;SDS011;53459;51.828;7.872;2022-08-21T17:23:17;5.37;;;1.57;;
66601;SDS011;53459;51.828;7.872;2022-08-21T17:25:46;4.35;;;1.20;;
66601;SDS011;53459;51.828;7.872;2022-08-21T17:28:15;6.40;;;1.30;;
66601;SDS011;53459;51.828;7.872;2022-08-21T17:31:39;4.45;;;1.20;;
66601;SDS011;53459;51.828;7.872;2022-08-21T17:34:06;6.80;;;1.27;;
66601;SDS011;53459;51.828;7.872;2022-08-21T17:36:32;4.97;;;1.20;;
66601;SDS011;53459;51.828;7.872;2022-08-21T17:38:57;4.90;;;1.10;;
66601;SDS011;53459;51.828;7.872;2022-08-21T17:41:23;4.13;;;1.08;;
66601;SDS011;53459;51.828;7.872;2022-08-21T17:43:50;4.33;;;1.03;;
66601;SDS011;53459;51.828;7.872;2022-08-21T17:47:09;5.63;;;1.15;;
66601;SDS011;53459;51.828;7.872;2022-08-21T17:50:55;4.40;;;1.13;;
66601;SDS011;53459;51.828;7.872;2022-08-21T17:53:21;3.75;;;1.00;;
66601;SDS011;53459;51.828;7.872;2022-08-21T17:55:47;4.50;;;1.27;;
66601;SDS011;53459;51.828;7.872;2022-08-21T17:58:13;5.18;;;1.02;;
66601;SDS011;53459;51.828;7.872;2022-08-21T18:00:40;5.30;;;1.20;;
66601;SDS011;53459;51.828;7.872;2022-08-21T18:03:10;4.38;;;1.10;;
66601;SDS011;53459;51.828;7.872;2022-08-21T18:05:42;5.38;;;1.10;;
66601;SDS011;53459;51.828;7.872;2022-08-21T18:08:16;7.25;;;1.70;;
66601;SDS011;53459;51.828;7.872;2022-08-21T18:10:44;6.38;;;1.15;;
66601;SDS011;53459;51.828;7.872;2022-08-21T18:13:13;7.43;;;1.23;;
66601;SDS011;53459;51.828;7.872;2022-08-21T18:15:43;4.50;;;1.00;;
66601;SDS011;53459;51.828;7.872;2022-08-21T18:18:13;6.33;;;1.10;;
66601;SDS011;53459;51.828;7.872;2022-08-21T18:20:38;5.88;;;1.30;;
66601;SDS011;53459;51.828;7.872;2022-08-21T18:23:04;4.93;;;1.20;;
66601;SDS011;53459;51.828;7.872;2022-08-21T18:25:30;5.53;;;1.40;;
66601;SDS011;53459;51.828;7.872;2022-08-21T18:27:55;4.97;;;1.17;;
66601;SDS011;53459;51.828;7.872;2022-08-21T18:30:22;6.25;;;1.30;;
66601;SDS011;53459;51.828;7.872;2022-08-21T18:32:48;5.83;;;1.27;;
66601;SDS011;53459;51.828;7.872;2022-08-21T18:35:16;5.47;;;1.10;;
66601;SDS011;53459;51.828;7.872;2022-08-21T18:41:36;6.65;;;1.60;;
66601;SDS011;53459;51.828;7.872;2022-08-21T18:44:01;5.15;;;1.10;;
66601;SDS011;53459;51.828;7.872;2022-08-21T18:46:27;5.00;;;1.20;;
66601;SDS011;53459;51.828;7.872;2022-08-21T18:48:54;5.68;;;1.27;;
66601;SDS011;53459;51.828;7.872;2022-08-21T18:51:19;4.47;;;1.00;;
66601;SDS011;53459;51.828;7.872;2022-08-21T18:53:45;5.82;;;1.27;;
66601;SDS011;53459;51.828;7.872;2022-08-21T18:56:12;4.32;;;1.13;;
66601;SDS011;53459;51.828;7.872;2022-08-21T18:58:38;5.27;;;1.20;;
66601;SDS011;53459;51.828;7.872;2022-08-21T19:01:04;5.45;;;1.35;;
66601;SDS011;53459;51.828;7.872;2022-08-21T19:03:29;4.23;;;1.40;;
66601;SDS011;53459;51.828;7.872;2022-08-21T19:05:58;5.50;;;1.30;;
66601;SDS011;53459;51.828;7.872;2022-08-21T19:08:24;5.68;;;1.30;;
66601;SDS011;53459;51.828;7.872;2022-08-21T19:10:54;4.70;;;1.20;;
66601;SDS011;53459;51.828;7.872;2022-08-21T19:13:22;4.88;;;1.25;;
66601;SDS011;53459;51.828;7.872;2022-08-21T19:15:49;4.80;;;1.10;;
66601;SDS011;53459;51.828;7.872;2022-08-21T19:18:20;4.38;;;1.20;;
66601;SDS011;53459;51.828;7.872;2022-08-21T19:20:49;6.85;;;1.40;;
66601;SDS011;53459;51.828;7.872;2022-08-21T19:24:54;5.32;;;1.40;;
66601;SDS011;53459;51.828;7.872;2022-08-21T19:27:20;5.63;;;1.25;;
66601;SDS011;53459;51.828;7.872;2022-08-21T19:29:45;5.83;;;1.20;;
66601;SDS011;53459;51.828;7.872;2022-08-21T19:32:11;6.05;;;1.15;;
66601;SDS011;53459;51.828;7.872;2022-08-21T19:34:37;5.32;;;1.17;;
66601;SDS011;53459;51.828;7.872;2022-08-21T19:40:33;5.70;;;1.40;;
66601;SDS011;53459;51.828;7.872;2022-08-21T19:42:59;5.33;;;1.23;;
66601;SDS011;53459;51.828;7.872;2022-08-21T19:45:24;4.80;;;1.20;;
66601;SDS011;53459;51.828;7.872;2022-08-21T19:47:50;4.85;;;1.17;;
66601;SDS011;53459;51.828;7.872;2022-08-21T19:50:16;6.60;;;1.40;;
66601;SDS011;53459;51.828;7.872;2022-08-21T19:52:41;4.85;;;1.40;;
66601;SDS011;53459;51.828;7.872;2022-08-21T19:55:07;4.73;;;1.20;;
66601;SDS011;53459;51.828;7.872;2022-08-21T19:57:35;5.47;;;1.48;;
66601;SDS011;53459;51.828;7.872;2022-08-21T20:00:03;5.50;;;1.40;;
66601;SDS011;53459;51.828;7.872;2022-08-21T20:02:32;5.97;;;1.73;;
66601;SDS011;53459;51.828;7.872;2022-08-21T20:06:57;5.65;;;1.48;;
66601;SDS011;53459;51.828;7.872;2022-08-21T20:09:23;5.60;;;1.30;;
66601;SDS011;53459;51.828;7.872;2022-08-21T20:11:50;6.03;;;1.53;;
66601;SDS011;53459;51.828;7.872;2022-08-21T20:14:19;4.95;;;1.60;;
66601;SDS011;53459;51.828;7.872;2022-08-21T20:16:47;6.40;;;1.40;;
66601;SDS011;53459;51.828;7.872;2022-08-21T20:19:14;5.50;;;1.70;;
66601;SDS011;53459;51.828;7.872;2022-08-21T20:21:40;6.43;;;1.73;;
66601;SDS011;53459;51.828;7.872;2022-08-21T20:24:06;5.85;;;1.50;;
66601;SDS011;53459;51.828;7.872;2022-08-21T20:26:33;5.88;;;1.80;;